sensor_id;sensor_type;location;lat;lon;timestamp;P1;durP1;ratioP1;P2;durP2;ratioP2
56537;SDS011;42435;53.292;6.000;2022-12-10T00:00:45;139.18;;;48.60;;
56537;SDS011;42435;53.292;6.000;2022-12-10T00:03:13;126.20;;;46.95;;
56537;SDS011;42435;53.292;6.000;2022-12-10T00:05:47;136.48;;;48.83;;
56537;SDS011;42435;53.292;6.000;2022-12-10T00:08:13;126.75;;;46.13;;
56537;SDS011;42435;53.292;6.000;2022-12-10T00:10:46;149.27;;;53.00;;
56537;SDS011;42435;53.292;6.000;2022-12-10T00:13:17;140.80;;;50.63;;
56537;SDS011;42435;53.292;6.000;2022-12-10T00:15:52;156.27;;;52.17;;
56537;SDS011;42435;53.292;6.000;2022-12-10T00:18:20;161.48;;;51.05;;
56537;SDS011;42435;53.292;6.000;2022-12-10T00:20:54;150.30;;;53.33;;
56537;SDS011;42435;53.292;6.000;2022-12-10T00:23:26;151.73;;;51.20;;
56537;SDS011;42435;53.292;6.000;2022-12-10T00:29:00;175.40;;;52.08;;
56537;SDS011;42435;53.292;6.000;2022-12-10T00:31:56;175.13;;;50.67;;
56537;SDS011;42435;53.292;6.000;2022-12-10T00:35:00;162.23;;;49.95;;
56537;SDS011;42435;53.292;6.000;2022-12-10T00:37:40;235.82;;;60.13;;
56537;SDS011;42435;53.292;6.000;2022-12-10T00:40:16;205.43;;;55.08;;
56537;SDS011;42435;53.292;6.000;2022-12-10T00:43:20;202.98;;;53.72;;
56537;SDS011;42435;53.292;6.000;2022-12-10T00:45:58;217.25;;;54.95;;
56537;SDS011;42435;53.292;6.000;2022-12-10T00:48:27;252.07;;;57.38;;
56537;SDS011;42435;53.292;6.000;2022-12-10T00:50:57;200.13;;;55.85;;
56537;SDS011;42435;53.292;6.000;2022-12-10T00:53:56;206.48;;;54.88;;
56537;SDS011;42435;53.292;6.000;2022-12-10T00:56:36;249.20;;;59.10;;
56537;SDS011;42435;53.292;6.000;2022-12-10T00:59:17;256.48;;;63.50;;
56537;SDS011;42435;53.292;6.000;2022-12-10T01:01:43;218.45;;;54.95;;
56537;SDS011;42435;53.292;6.000;2022-12-10T01:04:16;218.63;;;59.08;;
56537;SDS011;42435;53.292;6.000;2022-12-10T01:07:16;233.18;;;59.25;;
56537;SDS011;42435;53.292;6.000;2022-12-10T01:10:21;214.35;;;59.20;;
56537;SDS011;42435;53.292;6.000;2022-12-10T01:13:04;206.95;;;58.53;;
56537;SDS011;42435;53.292;6.000;2022-12-10T01:15:36;216.07;;;60.10;;
56537;SDS011;42435;53.292;6.000;2022-12-10T01:18:06;219.40;;;56.70;;
56537;SDS011;42435;53.292;6.000;2022-12-10T01:20:53;259.95;;;66.75;;
56537;SDS011;42435;53.292;6.000;2022-12-10T01:23:49;231.80;;;61.30;;
56537;SDS011;42435;53.292;6.000;2022-12-10T01:30:02;282.67;;;68.05;;
56537;SDS011;42435;53.292;6.000;2022-12-10T01:32:45;291.95;;;68.78;;
56537;SDS011;42435;53.292;6.000;2022-12-10T01:35:22;266.10;;;63.80;;
56537;SDS011;42435;53.292;6.000;2022-12-10T01:38:03;306.13;;;70.32;;
56537;SDS011;42435;53.292;6.000;2022-12-10T01:40:53;275.33;;;67.53;;
56537;SDS011;42435;53.292;6.000;2022-12-10T01:46:33;297.70;;;68.53;;
56537;SDS011;42435;53.292;6.000;2022-12-10T01:49:37;326.13;;;74.80;;
56537;SDS011;42435;53.292;6.000;2022-12-10T01:52:08;298.98;;;68.05;;
56537;SDS011;42435;53.292;6.000;2022-12-10T01:54:53;278.38;;;69.03;;
56537;SDS011;42435;53.292;6.000;2022-12-10T01:57:20;271.77;;;64.00;;
56537;SDS011;42435;53.292;6.000;2022-12-10T02:00:17;360.42;;;79.88;;
56537;SDS011;42435;53.292;6.000;2022-12-10T02:03:11;250.90;;;63.45;;
56537;SDS011;42435;53.292;6.000;2022-12-10T02:06:06;291.15;;;73.82;;
56537;SDS011;42435;53.292;6.000;2022-12-10T02:09:09;251.25;;;68.70;;
56537;SDS011;42435;53.292;6.000;2022-12-10T02:14:55;290.67;;;70.28;;
56537;SDS011;42435;53.292;6.000;2022-12-10T02:20:56;381.92;;;83.00;;
56537;SDS011;42435;53.292;6.000;2022-12-10T02:26:43;244.95;;;62.78;;
56537;SDS011;42435;53.292;6.000;2022-12-10T02:29:37;324.33;;;72.75;;
56537;SDS011;42435;53.292;6.000;2022-12-10T02:35:26;333.40;;;76.18;;
56537;SDS011;42435;53.292;6.000;2022-12-10T02:41:33;205.23;;;60.78;;
56537;SDS011;42435;53.292;6.000;2022-12-10T02:47:44;284.38;;;71.53;;
56537;SDS011;42435;53.292;6.000;2022-12-10T02:50:37;325.80;;;74.10;;
56537;SDS011;42435;53.292;6.000;2022-12-10T02:53:32;300.90;;;74.10;;
56537;SDS011;42435;53.292;6.000;2022-12-10T02:59:25;345.95;;;78.35;;
56537;SDS011;42435;53.292;6.000;2022-12-10T03:02:29;259.80;;;67.63;;
56537;SDS011;42435;53.292;6.000;2022-12-10T03:08:33;332.85;;;80.22;;
56537;SDS011;42435;53.292;6.000;2022-12-10T03:11:18;307.27;;;76.75;;
56537;SDS011;42435;53.292;6.000;2022-12-10T03:14:27;291.73;;;75.32;;
56537;SDS011;42435;53.292;6.000;2022-12-10T03:16:54;268.65;;;69.15;;
56537;SDS011;42435;53.292;6.000;2022-12-10T03:19:26;304.85;;;75.30;;
56537;SDS011;42435;53.292;6.000;2022-12-10T03:22:14;296.55;;;73.47;;
56537;SDS011;42435;53.292;6.000;2022-12-10T03:24:52;213.48;;;60.95;;
56537;SDS011;42435;53.292;6.000;2022-12-10T03:27:47;335.27;;;79.85;;
56537;SDS011;42435;53.292;6.000;2022-12-10T03:30:27;243.80;;;66.50;;
56537;SDS011;42435;53.292;6.000;2022-12-10T03:33:09;289.63;;;74.35;;
56537;SDS011;42435;53.292;6.000;2022-12-10T03:36:14;281.52;;;73.78;;
56537;SDS011;42435;53.292;6.000;2022-12-10T03:38:44;279.00;;;67.80;;
56537;SDS011;42435;53.292;6.000;2022-12-10T03:41:09;332.10;;;79.47;;
56537;SDS011;42435;53.292;6.000;2022-12-10T03:43:54;324.83;;;76.50;;
56537;SDS011;42435;53.292;6.000;2022-12-10T03:46:23;341.08;;;81.75;;
56537;SDS011;42435;53.292;6.000;2022-12-10T03:52:17;323.45;;;76.18;;
56537;SDS011;42435;53.292;6.000;2022-12-10T03:54:55;447.40;;;95.03;;
56537;SDS011;42435;53.292;6.000;2022-12-10T03:57:23;395.20;;;89.03;;
56537;SDS011;42435;53.292;6.000;2022-12-10T04:00:01;296.85;;;71.95;;
56537;SDS011;42435;53.292;6.000;2022-12-10T04:02:34;375.17;;;80.55;;
56537;SDS011;42435;53.292;6.000;2022-12-10T04:05:40;307.92;;;76.53;;
56537;SDS011;42435;53.292;6.000;2022-12-10T04:08:09;327.33;;;75.43;;
56537;SDS011;42435;53.292;6.000;2022-12-10T04:10:37;378.52;;;84.80;;
56537;SDS011;42435;53.292;6.000;2022-12-10T04:13:26;329.08;;;80.47;;
56537;SDS011;42435;53.292;6.000;2022-12-10T04:16:31;323.08;;;80.15;;
56537;SDS011;42435;53.292;6.000;2022-12-10T04:19:53;332.38;;;78.40;;
56537;SDS011;42435;53.292;6.000;2022-12-10T04:22:30;345.13;;;79.95;;
56537;SDS011;42435;53.292;6.000;2022-12-10T04:25:35;400.15;;;86.03;;
56537;SDS011;42435;53.292;6.000;2022-12-10T04:28:45;367.30;;;79.65;;
56537;SDS011;42435;53.292;6.000;2022-12-10T04:31:25;360.55;;;78.95;;
56537;SDS011;42435;53.292;6.000;2022-12-10T04:34:18;351.20;;;75.25;;
56537;SDS011;42435;53.292;6.000;2022-12-10T04:37:02;370.00;;;81.05;;
56537;SDS011;42435;53.292;6.000;2022-12-10T04:42:34;441.48;;;85.95;;
56537;SDS011;42435;53.292;6.000;2022-12-10T04:45:09;373.48;;;78.82;;
56537;SDS011;42435;53.292;6.000;2022-12-10T04:47:37;500.05;;;95.78;;
56537;SDS011;42435;53.292;6.000;2022-12-10T04:50:15;357.17;;;75.28;;
56537;SDS011;42435;53.292;6.000;2022-12-10T04:52:52;467.77;;;88.93;;
56537;SDS011;42435;53.292;6.000;2022-12-10T04:55:24;485.08;;;92.95;;
56537;SDS011;42435;53.292;6.000;2022-12-10T04:58:25;423.15;;;86.22;;
56537;SDS011;42435;53.292;6.000;2022-12-10T05:01:05;422.90;;;85.22;;
56537;SDS011;42435;53.292;6.000;2022-12-10T05:03:42;386.52;;;77.40;;
56537;SDS011;42435;53.292;6.000;2022-12-10T05:06:09;570.17;;;104.88;;
56537;SDS011;42435;53.292;6.000;2022-12-10T05:08:41;537.92;;;104.28;;
56537;SDS011;42435;53.292;6.000;2022-12-10T05:11:19;365.90;;;75.97;;
56537;SDS011;42435;53.292;6.000;2022-12-10T05:13:54;418.02;;;77.65;;
56537;SDS011;42435;53.292;6.000;2022-12-10T05:19:37;515.80;;;92.22;;
56537;SDS011;42435;53.292;6.000;2022-12-10T05:22:48;369.55;;;74.53;;
56537;SDS011;42435;53.292;6.000;2022-12-10T05:25:24;442.17;;;80.23;;
56537;SDS011;42435;53.292;6.000;2022-12-10T05:27:58;384.13;;;76.25;;
56537;SDS011;42435;53.292;6.000;2022-12-10T05:33:53;356.50;;;75.75;;
56537;SDS011;42435;53.292;6.000;2022-12-10T05:37:10;375.67;;;73.05;;
56537;SDS011;42435;53.292;6.000;2022-12-10T05:39:50;440.98;;;87.35;;
56537;SDS011;42435;53.292;6.000;2022-12-10T05:42:24;406.38;;;83.72;;
56537;SDS011;42435;53.292;6.000;2022-12-10T05:45:19;407.85;;;80.90;;
56537;SDS011;42435;53.292;6.000;2022-12-10T05:47:59;281.42;;;66.22;;
56537;SDS011;42435;53.292;6.000;2022-12-10T05:50:30;375.98;;;73.13;;
56537;SDS011;42435;53.292;6.000;2022-12-10T05:53:13;304.48;;;63.92;;
56537;SDS011;42435;53.292;6.000;2022-12-10T05:56:20;388.10;;;76.90;;
56537;SDS011;42435;53.292;6.000;2022-12-10T06:01:36;424.83;;;78.72;;
56537;SDS011;42435;53.292;6.000;2022-12-10T06:04:17;385.60;;;71.82;;
56537;SDS011;42435;53.292;6.000;2022-12-10T06:07:04;369.73;;;63.58;;
56537;SDS011;42435;53.292;6.000;2022-12-10T06:09:50;341.73;;;56.17;;
56537;SDS011;42435;53.292;6.000;2022-12-10T06:12:34;362.10;;;65.43;;
56537;SDS011;42435;53.292;6.000;2022-12-10T06:15:20;353.23;;;62.00;;
56537;SDS011;42435;53.292;6.000;2022-12-10T06:18:32;307.65;;;54.55;;
56537;SDS011;42435;53.292;6.000;2022-12-10T06:24:40;295.58;;;50.67;;
56537;SDS011;42435;53.292;6.000;2022-12-10T06:27:11;307.15;;;58.72;;
56537;SDS011;42435;53.292;6.000;2022-12-10T06:30:03;238.40;;;66.55;;
56537;SDS011;42435;53.292;6.000;2022-12-10T06:32:32;338.77;;;67.47;;
56537;SDS011;42435;53.292;6.000;2022-12-10T06:35:19;230.82;;;49.95;;
56537;SDS011;42435;53.292;6.000;2022-12-10T06:38:23;301.88;;;53.25;;
56537;SDS011;42435;53.292;6.000;2022-12-10T06:40:56;260.00;;;53.22;;
56537;SDS011;42435;53.292;6.000;2022-12-10T06:43:34;223.45;;;46.10;;
56537;SDS011;42435;53.292;6.000;2022-12-10T06:46:19;234.10;;;65.80;;
56537;SDS011;42435;53.292;6.000;2022-12-10T06:48:54;259.65;;;51.72;;
56537;SDS011;42435;53.292;6.000;2022-12-10T06:51:38;217.48;;;44.00;;
56537;SDS011;42435;53.292;6.000;2022-12-10T06:54:19;301.15;;;63.13;;
56537;SDS011;42435;53.292;6.000;2022-12-10T06:56:53;261.85;;;46.75;;
56537;SDS011;42435;53.292;6.000;2022-12-10T06:59:19;253.95;;;50.45;;
56537;SDS011;42435;53.292;6.000;2022-12-10T07:01:47;271.55;;;56.70;;
56537;SDS011;42435;53.292;6.000;2022-12-10T07:04:13;248.55;;;49.72;;
56537;SDS011;42435;53.292;6.000;2022-12-10T07:06:45;243.68;;;52.97;;
56537;SDS011;42435;53.292;6.000;2022-12-10T07:09:24;256.25;;;56.90;;
56537;SDS011;42435;53.292;6.000;2022-12-10T07:12:06;269.48;;;49.20;;
56537;SDS011;42435;53.292;6.000;2022-12-10T07:14:46;202.18;;;38.10;;
56537;SDS011;42435;53.292;6.000;2022-12-10T07:17:23;221.18;;;43.28;;
56537;SDS011;42435;53.292;6.000;2022-12-10T07:20:01;312.92;;;52.42;;
56537;SDS011;42435;53.292;6.000;2022-12-10T07:22:38;264.17;;;46.13;;
56537;SDS011;42435;53.292;6.000;2022-12-10T07:25:12;281.17;;;51.50;;
56537;SDS011;42435;53.292;6.000;2022-12-10T07:27:56;194.85;;;41.45;;
56537;SDS011;42435;53.292;6.000;2022-12-10T07:30:31;289.48;;;52.08;;
56537;SDS011;42435;53.292;6.000;2022-12-10T07:33:00;211.63;;;40.22;;
56537;SDS011;42435;53.292;6.000;2022-12-10T07:35:38;220.52;;;41.03;;
56537;SDS011;42435;53.292;6.000;2022-12-10T07:38:16;204.52;;;39.20;;
56537;SDS011;42435;53.292;6.000;2022-12-10T07:41:07;215.27;;;39.42;;
56537;SDS011;42435;53.292;6.000;2022-12-10T07:43:45;219.48;;;45.83;;
56537;SDS011;42435;53.292;6.000;2022-12-10T07:46:51;181.63;;;38.50;;
56537;SDS011;42435;53.292;6.000;2022-12-10T07:49:35;207.73;;;45.97;;
56537;SDS011;42435;53.292;6.000;2022-12-10T07:52:07;226.23;;;45.65;;
56537;SDS011;42435;53.292;6.000;2022-12-10T07:54:42;207.40;;;41.00;;
56537;SDS011;42435;53.292;6.000;2022-12-10T07:57:31;215.07;;;39.38;;
56537;SDS011;42435;53.292;6.000;2022-12-10T08:00:00;192.40;;;39.50;;
56537;SDS011;42435;53.292;6.000;2022-12-10T08:03:03;191.80;;;37.58;;
56537;SDS011;42435;53.292;6.000;2022-12-10T08:09:03;188.10;;;37.53;;
56537;SDS011;42435;53.292;6.000;2022-12-10T08:11:31;275.42;;;46.88;;
56537;SDS011;42435;53.292;6.000;2022-12-10T08:14:00;274.90;;;51.35;;
56537;SDS011;42435;53.292;6.000;2022-12-10T08:16:27;264.50;;;46.13;;
56537;SDS011;42435;53.292;6.000;2022-12-10T08:19:08;293.05;;;49.55;;
56537;SDS011;42435;53.292;6.000;2022-12-10T08:21:34;291.25;;;53.13;;
56537;SDS011;42435;53.292;6.000;2022-12-10T08:24:00;316.75;;;53.63;;
56537;SDS011;42435;53.292;6.000;2022-12-10T08:26:27;349.55;;;62.80;;
56537;SDS011;42435;53.292;6.000;2022-12-10T08:29:00;306.30;;;55.50;;
56537;SDS011;42435;53.292;6.000;2022-12-10T08:37:13;314.23;;;55.78;;
56537;SDS011;42435;53.292;6.000;2022-12-10T08:39:42;329.55;;;59.47;;
56537;SDS011;42435;53.292;6.000;2022-12-10T08:45:35;338.88;;;59.67;;
56537;SDS011;42435;53.292;6.000;2022-12-10T08:48:06;352.85;;;70.20;;
56537;SDS011;42435;53.292;6.000;2022-12-10T08:50:36;350.95;;;73.20;;
56537;SDS011;42435;53.292;6.000;2022-12-10T08:53:14;279.90;;;55.00;;
56537;SDS011;42435;53.292;6.000;2022-12-10T08:55:53;380.88;;;82.80;;
56537;SDS011;42435;53.292;6.000;2022-12-10T08:58:24;391.50;;;78.47;;
56537;SDS011;42435;53.292;6.000;2022-12-10T09:00:53;280.45;;;53.28;;
56537;SDS011;42435;53.292;6.000;2022-12-10T09:03:24;273.05;;;47.80;;
56537;SDS011;42435;53.292;6.000;2022-12-10T09:05:53;251.07;;;56.30;;
56537;SDS011;42435;53.292;6.000;2022-12-10T09:08:49;314.73;;;62.90;;
56537;SDS011;42435;53.292;6.000;2022-12-10T09:11:24;311.63;;;59.83;;
56537;SDS011;42435;53.292;6.000;2022-12-10T09:13:55;322.00;;;56.90;;
56537;SDS011;42435;53.292;6.000;2022-12-10T09:16:21;247.90;;;46.85;;
56537;SDS011;42435;53.292;6.000;2022-12-10T09:19:22;269.73;;;51.85;;
56537;SDS011;42435;53.292;6.000;2022-12-10T09:22:06;236.27;;;44.05;;
56537;SDS011;42435;53.292;6.000;2022-12-10T09:24:42;295.85;;;55.00;;
56537;SDS011;42435;53.292;6.000;2022-12-10T09:27:30;338.13;;;61.20;;
56537;SDS011;42435;53.292;6.000;2022-12-10T09:30:07;325.73;;;58.50;;
56537;SDS011;42435;53.292;6.000;2022-12-10T09:33:15;212.52;;;48.15;;
56537;SDS011;42435;53.292;6.000;2022-12-10T09:36:02;293.17;;;48.75;;
56537;SDS011;42435;53.292;6.000;2022-12-10T09:38:38;275.95;;;52.13;;
56537;SDS011;42435;53.292;6.000;2022-12-10T09:47:11;268.35;;;53.03;;
56537;SDS011;42435;53.292;6.000;2022-12-10T09:52:21;266.58;;;56.15;;
56537;SDS011;42435;53.292;6.000;2022-12-10T09:54:52;262.40;;;49.20;;
56537;SDS011;42435;53.292;6.000;2022-12-10T09:57:22;186.10;;;39.05;;
56537;SDS011;42435;53.292;6.000;2022-12-10T09:59:59;171.13;;;43.10;;
56537;SDS011;42435;53.292;6.000;2022-12-10T10:02:55;160.00;;;36.63;;
56537;SDS011;42435;53.292;6.000;2022-12-10T10:05:40;193.63;;;42.50;;
56537;SDS011;42435;53.292;6.000;2022-12-10T10:08:14;187.10;;;37.78;;
56537;SDS011;42435;53.292;6.000;2022-12-10T10:10:55;246.38;;;41.97;;
56537;SDS011;42435;53.292;6.000;2022-12-10T10:13:36;184.38;;;37.33;;
56537;SDS011;42435;53.292;6.000;2022-12-10T10:16:29;271.75;;;49.95;;
56537;SDS011;42435;53.292;6.000;2022-12-10T10:19:16;253.88;;;49.15;;
56537;SDS011;42435;53.292;6.000;2022-12-10T10:21:56;273.85;;;50.63;;
56537;SDS011;42435;53.292;6.000;2022-12-10T10:25:07;225.20;;;40.47;;
56537;SDS011;42435;53.292;6.000;2022-12-10T10:28:09;274.92;;;45.50;;
56537;SDS011;42435;53.292;6.000;2022-12-10T10:31:01;238.60;;;43.47;;
56537;SDS011;42435;53.292;6.000;2022-12-10T10:33:57;191.00;;;34.20;;
56537;SDS011;42435;53.292;6.000;2022-12-10T10:36:37;195.13;;;35.08;;
56537;SDS011;42435;53.292;6.000;2022-12-10T10:42:38;145.75;;;31.63;;
56537;SDS011;42435;53.292;6.000;2022-12-10T10:48:37;244.32;;;44.58;;
56537;SDS011;42435;53.292;6.000;2022-12-10T10:54:06;239.70;;;47.28;;
56537;SDS011;42435;53.292;6.000;2022-12-10T10:56:55;261.60;;;49.10;;
56537;SDS011;42435;53.292;6.000;2022-12-10T10:59:33;245.10;;;43.80;;
56537;SDS011;42435;53.292;6.000;2022-12-10T11:02:28;283.48;;;45.80;;
56537;SDS011;42435;53.292;6.000;2022-12-10T11:05:21;202.75;;;35.47;;
56537;SDS011;42435;53.292;6.000;2022-12-10T11:14:21;266.95;;;44.55;;
56537;SDS011;42435;53.292;6.000;2022-12-10T11:17:21;259.02;;;42.60;;
56537;SDS011;42435;53.292;6.000;2022-12-10T11:22:49;265.58;;;44.67;;
56537;SDS011;42435;53.292;6.000;2022-12-10T11:25:55;242.13;;;43.80;;
56537;SDS011;42435;53.292;6.000;2022-12-10T11:28:42;228.27;;;43.80;;
56537;SDS011;42435;53.292;6.000;2022-12-10T11:36:59;158.60;;;36.55;;
56537;SDS011;42435;53.292;6.000;2022-12-10T11:42:40;133.27;;;34.55;;
56537;SDS011;42435;53.292;6.000;2022-12-10T11:45:25;233.93;;;41.67;;
56537;SDS011;42435;53.292;6.000;2022-12-10T11:51:08;247.23;;;42.70;;
56537;SDS011;42435;53.292;6.000;2022-12-10T11:53:50;197.52;;;45.33;;
56537;SDS011;42435;53.292;6.000;2022-12-10T11:56:21;292.98;;;51.25;;
56537;SDS011;42435;53.292;6.000;2022-12-10T11:59:21;178.23;;;38.05;;
56537;SDS011;42435;53.292;6.000;2022-12-10T12:10:15;220.45;;;42.50;;
56537;SDS011;42435;53.292;6.000;2022-12-10T12:15:44;165.38;;;39.47;;
56537;SDS011;42435;53.292;6.000;2022-12-10T12:18:20;154.25;;;38.42;;
56537;SDS011;42435;53.292;6.000;2022-12-10T12:20:52;145.00;;;41.83;;
56537;SDS011;42435;53.292;6.000;2022-12-10T12:25:55;178.98;;;48.60;;
56537;SDS011;42435;53.292;6.000;2022-12-10T12:28:31;181.18;;;43.67;;
56537;SDS011;42435;53.292;6.000;2022-12-10T12:31:11;141.85;;;36.20;;
56537;SDS011;42435;53.292;6.000;2022-12-10T12:33:44;149.05;;;39.47;;
56537;SDS011;42435;53.292;6.000;2022-12-10T12:36:22;132.10;;;37.78;;
56537;SDS011;42435;53.292;6.000;2022-12-10T12:47:10;87.47;;;29.42;;
56537;SDS011;42435;53.292;6.000;2022-12-10T12:49:59;98.60;;;31.77;;
56537;SDS011;42435;53.292;6.000;2022-12-10T12:55:11;91.63;;;29.88;;
56537;SDS011;42435;53.292;6.000;2022-12-10T12:58:11;95.55;;;31.92;;
56537;SDS011;42435;53.292;6.000;2022-12-10T13:00:39;91.57;;;30.77;;
56537;SDS011;42435;53.292;6.000;2022-12-10T13:03:18;85.28;;;30.15;;
56537;SDS011;42435;53.292;6.000;2022-12-10T13:05:47;94.75;;;34.85;;
56537;SDS011;42435;53.292;6.000;2022-12-10T13:10:45;95.90;;;30.35;;
56537;SDS011;42435;53.292;6.000;2022-12-10T13:15:52;86.70;;;29.88;;
56537;SDS011;42435;53.292;6.000;2022-12-10T13:18:20;88.28;;;27.15;;
56537;SDS011;42435;53.292;6.000;2022-12-10T13:23:51;84.55;;;27.65;;
56537;SDS011;42435;53.292;6.000;2022-12-10T13:26:27;92.30;;;30.92;;
56537;SDS011;42435;53.292;6.000;2022-12-10T13:28:54;89.65;;;29.13;;
56537;SDS011;42435;53.292;6.000;2022-12-10T13:31:35;82.65;;;28.30;;
56537;SDS011;42435;53.292;6.000;2022-12-10T13:41:38;91.22;;;29.50;;
56537;SDS011;42435;53.292;6.000;2022-12-10T13:44:30;93.75;;;34.35;;
56537;SDS011;42435;53.292;6.000;2022-12-10T13:49:52;84.43;;;30.38;;
56537;SDS011;42435;53.292;6.000;2022-12-10T13:52:30;93.22;;;34.17;;
56537;SDS011;42435;53.292;6.000;2022-12-10T13:55:07;82.90;;;30.00;;
56537;SDS011;42435;53.292;6.000;2022-12-10T14:00:48;69.47;;;26.83;;
56537;SDS011;42435;53.292;6.000;2022-12-10T14:06:13;70.70;;;27.27;;
56537;SDS011;42435;53.292;6.000;2022-12-10T14:11:19;75.82;;;28.27;;
56537;SDS011;42435;53.292;6.000;2022-12-10T14:13:48;78.82;;;28.52;;
56537;SDS011;42435;53.292;6.000;2022-12-10T14:16:18;71.68;;;26.52;;
56537;SDS011;42435;53.292;6.000;2022-12-10T14:18:57;93.88;;;32.40;;
56537;SDS011;42435;53.292;6.000;2022-12-10T14:21:31;92.93;;;32.50;;
56537;SDS011;42435;53.292;6.000;2022-12-10T14:23:59;91.22;;;33.65;;
56537;SDS011;42435;53.292;6.000;2022-12-10T14:26:26;100.47;;;37.38;;
56537;SDS011;42435;53.292;6.000;2022-12-10T14:29:01;90.70;;;34.67;;
56537;SDS011;42435;53.292;6.000;2022-12-10T14:31:48;81.32;;;28.95;;
56537;SDS011;42435;53.292;6.000;2022-12-10T14:34:17;96.43;;;30.00;;
56537;SDS011;42435;53.292;6.000;2022-12-10T14:36:46;92.10;;;31.25;;
56537;SDS011;42435;53.292;6.000;2022-12-10T14:39:14;101.57;;;36.55;;
56537;SDS011;42435;53.292;6.000;2022-12-10T14:41:43;110.32;;;35.92;;
56537;SDS011;42435;53.292;6.000;2022-12-10T14:44:14;84.43;;;31.75;;
56537;SDS011;42435;53.292;6.000;2022-12-10T14:46:42;95.47;;;31.38;;
56537;SDS011;42435;53.292;6.000;2022-12-10T14:49:13;91.38;;;33.72;;
56537;SDS011;42435;53.292;6.000;2022-12-10T14:51:41;104.80;;;35.28;;
56537;SDS011;42435;53.292;6.000;2022-12-10T14:54:22;120.28;;;39.53;;
56537;SDS011;42435;53.292;6.000;2022-12-10T14:56:55;98.90;;;35.20;;
56537;SDS011;42435;53.292;6.000;2022-12-10T14:59:22;82.72;;;32.53;;
56537;SDS011;42435;53.292;6.000;2022-12-10T15:02:07;81.13;;;31.98;;
56537;SDS011;42435;53.292;6.000;2022-12-10T15:04:45;88.50;;;32.42;;
56537;SDS011;42435;53.292;6.000;2022-12-10T15:07:13;90.72;;;31.63;;
56537;SDS011;42435;53.292;6.000;2022-12-10T15:09:43;101.07;;;39.63;;
56537;SDS011;42435;53.292;6.000;2022-12-10T15:12:16;155.05;;;54.00;;
56537;SDS011;42435;53.292;6.000;2022-12-10T15:14:54;182.82;;;51.80;;
56537;SDS011;42435;53.292;6.000;2022-12-10T15:17:34;154.45;;;44.22;;
56537;SDS011;42435;53.292;6.000;2022-12-10T15:20:02;161.70;;;45.05;;
56537;SDS011;42435;53.292;6.000;2022-12-10T15:22:34;135.45;;;42.33;;
56537;SDS011;42435;53.292;6.000;2022-12-10T15:25:02;122.78;;;39.47;;
56537;SDS011;42435;53.292;6.000;2022-12-10T15:27:51;141.20;;;41.88;;
56537;SDS011;42435;53.292;6.000;2022-12-10T15:30:23;195.88;;;48.92;;
56537;SDS011;42435;53.292;6.000;2022-12-10T15:32:56;141.52;;;40.55;;
56537;SDS011;42435;53.292;6.000;2022-12-10T15:35:22;185.77;;;48.67;;
56537;SDS011;42435;53.292;6.000;2022-12-10T15:37:47;166.50;;;45.80;;
56537;SDS011;42435;53.292;6.000;2022-12-10T15:40:36;218.77;;;52.13;;
56537;SDS011;42435;53.292;6.000;2022-12-10T15:43:12;143.75;;;44.85;;
56537;SDS011;42435;53.292;6.000;2022-12-10T15:45:48;222.68;;;51.70;;
56537;SDS011;42435;53.292;6.000;2022-12-10T15:48:15;178.27;;;47.63;;
56537;SDS011;42435;53.292;6.000;2022-12-10T15:50:42;280.92;;;61.83;;
56537;SDS011;42435;53.292;6.000;2022-12-10T15:53:16;210.07;;;56.97;;
56537;SDS011;42435;53.292;6.000;2022-12-10T15:55:49;164.30;;;47.85;;
56537;SDS011;42435;53.292;6.000;2022-12-10T15:58:18;175.70;;;45.53;;
56537;SDS011;42435;53.292;6.000;2022-12-10T16:00:44;151.05;;;42.47;;
56537;SDS011;42435;53.292;6.000;2022-12-10T16:03:15;143.20;;;42.05;;
56537;SDS011;42435;53.292;6.000;2022-12-10T16:05:47;167.95;;;44.75;;
56537;SDS011;42435;53.292;6.000;2022-12-10T16:08:21;137.07;;;39.90;;
56537;SDS011;42435;53.292;6.000;2022-12-10T16:10:56;182.35;;;45.88;;
56537;SDS011;42435;53.292;6.000;2022-12-10T16:13:37;161.20;;;41.47;;
56537;SDS011;42435;53.292;6.000;2022-12-10T16:16:06;174.48;;;52.75;;
56537;SDS011;42435;53.292;6.000;2022-12-10T16:18:34;162.80;;;43.85;;
56537;SDS011;42435;53.292;6.000;2022-12-10T16:21:02;178.60;;;49.17;;
56537;SDS011;42435;53.292;6.000;2022-12-10T16:23:29;195.60;;;61.90;;
56537;SDS011;42435;53.292;6.000;2022-12-10T16:25:56;238.35;;;76.13;;
56537;SDS011;42435;53.292;6.000;2022-12-10T16:28:25;259.55;;;64.15;;
56537;SDS011;42435;53.292;6.000;2022-12-10T16:30:53;207.38;;;55.33;;
56537;SDS011;42435;53.292;6.000;2022-12-10T16:33:24;220.20;;;51.80;;
56537;SDS011;42435;53.292;6.000;2022-12-10T16:35:52;204.85;;;51.65;;
56537;SDS011;42435;53.292;6.000;2022-12-10T16:38:18;214.60;;;52.38;;
56537;SDS011;42435;53.292;6.000;2022-12-10T16:40:48;162.75;;;43.78;;
56537;SDS011;42435;53.292;6.000;2022-12-10T16:43:22;230.23;;;53.88;;
56537;SDS011;42435;53.292;6.000;2022-12-10T16:45:54;223.77;;;52.63;;
56537;SDS011;42435;53.292;6.000;2022-12-10T16:48:20;201.55;;;56.30;;
56537;SDS011;42435;53.292;6.000;2022-12-10T16:50:46;176.77;;;51.85;;
56537;SDS011;42435;53.292;6.000;2022-12-10T16:53:27;283.23;;;74.80;;
56537;SDS011;42435;53.292;6.000;2022-12-10T16:55:54;203.48;;;55.53;;
56537;SDS011;42435;53.292;6.000;2022-12-10T16:58:21;228.23;;;59.70;;
56537;SDS011;42435;53.292;6.000;2022-12-10T17:00:48;165.70;;;45.10;;
56537;SDS011;42435;53.292;6.000;2022-12-10T17:03:22;217.90;;;60.25;;
56537;SDS011;42435;53.292;6.000;2022-12-10T17:05:56;221.23;;;57.25;;
56537;SDS011;42435;53.292;6.000;2022-12-10T17:08:27;186.85;;;51.40;;
56537;SDS011;42435;53.292;6.000;2022-12-10T17:10:54;179.10;;;46.88;;
56537;SDS011;42435;53.292;6.000;2022-12-10T17:13:40;194.45;;;50.72;;
56537;SDS011;42435;53.292;6.000;2022-12-10T17:16:06;219.85;;;50.58;;
56537;SDS011;42435;53.292;6.000;2022-12-10T17:18:37;194.73;;;47.22;;
56537;SDS011;42435;53.292;6.000;2022-12-10T17:21:03;213.07;;;50.05;;
56537;SDS011;42435;53.292;6.000;2022-12-10T17:23:29;222.23;;;46.25;;
56537;SDS011;42435;53.292;6.000;2022-12-10T17:25:54;195.15;;;46.08;;
56537;SDS011;42435;53.292;6.000;2022-12-10T17:28:22;190.23;;;48.08;;
56537;SDS011;42435;53.292;6.000;2022-12-10T17:30:48;170.10;;;42.50;;
56537;SDS011;42435;53.292;6.000;2022-12-10T17:33:16;182.73;;;45.85;;
56537;SDS011;42435;53.292;6.000;2022-12-10T17:35:44;170.80;;;47.20;;
56537;SDS011;42435;53.292;6.000;2022-12-10T17:38:13;168.20;;;44.78;;
56537;SDS011;42435;53.292;6.000;2022-12-10T17:40:41;249.27;;;60.75;;
56537;SDS011;42435;53.292;6.000;2022-12-10T17:43:06;138.35;;;39.92;;
56537;SDS011;42435;53.292;6.000;2022-12-10T17:45:32;210.55;;;50.42;;
56537;SDS011;42435;53.292;6.000;2022-12-10T17:47:58;200.00;;;47.80;;
56537;SDS011;42435;53.292;6.000;2022-12-10T17:50:31;183.18;;;45.38;;
56537;SDS011;42435;53.292;6.000;2022-12-10T17:52:59;184.48;;;45.25;;